Time;durP1;ratioP1;P1;durP2;ratioP2;P2;SDS_P1;SDS_P2;PMS_P1;PMS_P2;Temp;Humidity;BMP_temperature;BMP_pressure;BME280_temperature;BME280_humidity;BME280_pressure;Samples;Min_cycle;Max_cycle;Signal;HPM_P1;HPM_P2
2022/11/24 00:01:30;;;;;;;10.55;1.58;;;9.50;99.90;;;;;;4960752;28;20035;-77
2022/11/24 00:04:02;;;;;;;8.80;1.60;;;9.60;99.90;;;;;;4963338;28;20861;-78
2022/11/24 00:06:29;;;;;;;12.20;1.52;;;9.50;99.90;;;;;;4966396;28;20030;-77
2022/11/24 00:08:55;;;;;;;8.07;0.98;;;9.60;99.90;;;;;;4948279;28;20045;-78
2022/11/24 00:11:26;;;;;;;8.73;1.50;;;9.60;99.90;;;;;;4967981;28;20034;-77
2022/11/24 00:13:52;;;;;;;10.88;1.35;;;9.50;99.90;;;;;;4965677;28;20149;-78
2022/11/24 00:16:20;;;;;;;8.32;1.67;;;9.50;99.90;;;;;;4961530;28;20535;-77
2022/11/24 00:18:48;;;;;;;9.13;1.33;;;9.40;99.90;;;;;;4946689;28;20042;-77
2022/11/24 00:21:16;;;;;;;9.20;1.20;;;9.20;99.90;;;;;;4964777;28;20023;-78
2022/11/24 00:23:42;;;;;;;10.50;1.55;;;9.10;99.90;;;;;;4965182;28;20441;-77
2022/11/24 00:26:13;;;;;;;6.20;1.10;;;9.00;99.90;;;;;;4964985;28;20027;-77
2022/11/24 00:28:40;;;;;;;5.93;0.98;;;8.90;99.90;;;;;;4963921;28;20077;-77
2022/11/24 00:31:17;;;;;;;6.43;1.08;;;8.80;99.90;;;;;;4963789;28;20061;-77
2022/11/24 00:33:44;;;;;;;15.75;1.23;;;8.60;99.90;;;;;;4962514;28;20114;-77
2022/11/24 00:36:10;;;;;;;6.78;1.10;;;8.60;99.70;;;;;;4964443;28;20035;-77
2022/11/24 00:38:35;;;;;;;7.25;1.88;;;8.50;99.90;;;;;;4964783;28;20041;-77
2022/11/24 00:41:01;;;;;;;5.03;0.90;;;8.50;99.90;;;;;;4957321;28;20550;-78
2022/11/24 00:43:27;;;;;;;9.48;1.48;;;8.50;99.90;;;;;;4941951;28;20042;-78
2022/11/24 00:45:52;;;;;;;10.25;1.50;;;8.50;99.90;;;;;;4963768;28;20117;-78
2022/11/24 00:48:18;;;;;;;8.13;1.25;;;8.60;99.90;;;;;;4963100;28;20026;-77
2022/11/24 00:50:43;;;;;;;11.32;1.60;;;8.60;99.60;;;;;;4963359;28;20482;-77
2022/11/24 00:53:09;;;;;;;8.85;1.30;;;8.60;99.80;;;;;;4963754;28;20414;-76
2022/11/24 00:55:35;;;;;;;7.85;1.35;;;8.60;99.40;;;;;;4962561;28;20359;-74
2022/11/24 00:58:00;;;;;;;5.95;1.45;;;8.50;99.80;;;;;;4963238;28;20038;-74
2022/11/24 01:00:26;;;;;;;9.98;1.55;;;8.40;99.30;;;;;;4963465;28;20113;-73
2022/11/24 01:02:52;;;;;;;9.00;0.90;;;8.30;99.40;;;;;;4964700;28;20041;-74
2022/11/24 01:05:18;;;;;;;7.43;1.10;;;8.30;99.90;;;;;;4945050;28;20026;-74
2022/11/24 01:07:43;;;;;;;7.70;1.00;;;8.20;98.90;;;;;;4962688;28;20093;-74
2022/11/24 01:10:09;;;;;;;9.23;1.30;;;8.20;99.40;;;;;;4963257;28;20474;-73
2022/11/24 01:12:35;;;;;;;5.15;1.13;;;8.10;99.30;;;;;;4960952;28;20034;-74
2022/11/24 01:15:00;;;;;;;4.95;1.00;;;8.10;98.90;;;;;;4943200;28;20031;-74
2022/11/24 01:17:26;;;;;;;6.03;1.65;;;8.10;98.70;;;;;;4961135;28;20035;-73
2022/11/24 01:19:52;;;;;;;8.18;1.55;;;8.10;98.60;;;;;;4961505;28;20570;-74
2022/11/24 01:22:17;;;;;;;7.15;1.08;;;8.00;98.30;;;;;;4959607;28;20046;-73
2022/11/24 01:24:44;;;;;;;11.25;1.25;;;8.00;98.50;;;;;;4947729;28;20066;-74
2022/11/24 01:27:10;;;;;;;9.20;1.00;;;7.90;98.20;;;;;;4959259;28;20030;-74
2022/11/24 01:29:35;;;;;;;9.93;1.20;;;8.00;98.30;;;;;;4959034;28;20039;-74
2022/11/24 01:32:01;;;;;;;8.13;1.23;;;7.90;98.10;;;;;;4958276;28;20046;-73
2022/11/24 01:34:27;;;;;;;8.23;1.17;;;7.90;98.00;;;;;;4948844;28;20035;-73
2022/11/24 01:36:52;;;;;;;4.55;1.08;;;7.90;98.00;;;;;;4959110;28;20622;-74
2022/11/24 01:39:18;;;;;;;5.70;1.27;;;7.90;98.30;;;;;;4959368;28;20023;-74
2022/11/24 01:41:43;;;;;;;10.00;1.13;;;7.80;98.30;;;;;;4959541;28;20031;-74
2022/11/24 01:44:29;;;;;;;13.10;1.77;;;7.80;98.60;;;;;;4961901;28;20026;-73
2022/11/24 01:47:03;;;;;;;10.30;1.02;;;7.70;98.80;;;;;;4955891;28;20042;-73
2022/11/24 01:49:40;;;;;;;6.43;1.42;;;7.70;98.80;;;;;;4956537;28;20039;-73
2022/11/24 01:52:18;;;;;;;7.65;0.93;;;7.70;98.90;;;;;;4959343;28;20049;-73
2022/11/24 01:55:07;;;;;;;6.85;1.27;;;7.70;99.00;;;;;;4959107;28;20034;-74
2022/11/24 01:58:03;;;;;;;5.85;1.33;;;7.60;99.20;;;;;;4956627;28;20180;-73
2022/11/24 02:00:28;;;;;;;8.65;1.75;;;7.50;99.10;;;;;;4951803;28;20478;-73
2022/11/24 02:02:56;;;;;;;11.38;1.30;;;7.50;99.80;;;;;;4951887;28;20090;-73
2022/11/24 02:05:34;;;;;;;6.78;0.90;;;7.50;99.50;;;;;;4955679;28;20504;-74
2022/11/24 02:08:00;;;;;;;10.60;0.95;;;7.40;99.70;;;;;;4956662;28;20019;-74
2022/11/24 02:10:27;;;;;;;7.35;1.42;;;7.40;99.90;;;;;;4943573;28;20037;-73
2022/11/24 02:12:55;;;;;;;11.10;1.80;;;7.40;99.80;;;;;;4961635;28;20035;-73
2022/11/24 02:15:22;;;;;;;11.63;1.58;;;7.40;99.80;;;;;;4948125;28;20402;-73
2022/11/24 02:17:47;;;;;;;5.22;1.33;;;7.30;99.90;;;;;;4956870;28;20065;-74
2022/11/24 02:20:13;;;;;;;11.05;1.55;;;7.30;99.90;;;;;;4962753;28;20034;-73
2022/11/24 02:22:48;;;;;;;8.15;1.23;;;7.30;99.90;;;;;;4962398;28;20566;-73
2022/11/24 02:25:29;;;;;;;11.98;1.67;;;7.20;99.90;;;;;;4971126;28;20037;-73
2022/11/24 02:27:57;;;;;;;8.23;1.20;;;7.20;99.90;;;;;;4959782;28;20551;-75
2022/11/24 02:30:23;;;;;;;10.68;2.28;;;7.20;99.90;;;;;;4961461;28;20023;-73
2022/11/24 02:32:51;;;;;;;11.57;1.50;;;7.10;99.90;;;;;;4945960;28;20181;-73
2022/11/24 02:35:17;;;;;;;12.38;1.60;;;7.10;99.90;;;;;;4941079;28;20383;-73
2022/11/24 02:37:43;;;;;;;13.70;1.55;;;7.10;99.90;;;;;;4953067;28;20447;-73
2022/11/24 02:40:09;;;;;;;11.05;1.33;;;7.20;99.90;;;;;;4961324;28;20089;-73
2022/11/24 02:42:41;;;;;;;19.40;2.15;;;7.20;99.90;;;;;;4962084;28;20035;-73
2022/11/24 02:45:08;;;;;;;9.25;1.30;;;7.20;99.90;;;;;;4954720;28;20042;-73
2022/11/24 02:47:34;;;;;;;14.93;1.58;;;7.20;99.90;;;;;;4947535;28;20399;-74
2022/11/24 02:49:59;;;;;;;12.50;1.20;;;7.20;99.90;;;;;;4958490;28;20042;-73
2022/11/24 02:52:25;;;;;;;11.43;1.80;;;7.20;99.90;;;;;;4941569;28;20046;-73
2022/11/24 02:54:51;;;;;;;16.55;1.77;;;7.20;99.90;;;;;;4941902;28;20130;-73
2022/11/24 02:57:16;;;;;;;11.00;1.70;;;7.20;99.90;;;;;;4958220;28;20140;-73
2022/11/24 02:59:42;;;;;;;8.95;1.30;;;7.20;99.90;;;;;;4957049;28;20464;-73
2022/11/24 03:02:09;;;;;;;16.27;1.92;;;7.20;99.90;;;;;;4956321;28;20042;-74
2022/11/24 03:04:34;;;;;;;9.27;1.38;;;7.20;99.90;;;;;;4957484;28;20057;-74
2022/11/24 03:07:00;;;;;;;6.68;1.75;;;7.10;99.90;;;;;;4956631;28;20027;-73
2022/11/24 03:09:26;;;;;;;14.23;1.50;;;7.10;99.90;;;;;;4939840;28;20102;-73
2022/11/24 03:11:51;;;;;;;11.95;1.67;;;7.10;99.90;;;;;;4957594;28;20121;-73
2022/11/24 03:14:17;;;;;;;13.75;1.83;;;7.10;99.90;;;;;;4939941;28;20018;-73
2022/11/24 03:16:43;;;;;;;12.25;2.03;;;7.10;99.90;;;;;;4956388;28;20449;-73
2022/11/24 03:19:08;;;;;;;19.08;2.03;;;7.20;99.90;;;;;;4962129;28;20425;-73
2022/11/24 03:21:35;;;;;;;17.80;2.45;;;7.20;99.90;;;;;;4960955;28;20022;-74
2022/11/24 03:24:01;;;;;;;13.65;1.98;;;7.20;99.90;;;;;;4960789;28;20069;-74
2022/11/24 03:26:27;;;;;;;13.30;2.22;;;7.20;99.90;;;;;;4953293;28;20287;-73
2022/11/24 03:28:56;;;;;;;13.05;1.95;;;7.30;99.90;;;;;;4936458;28;20756;-75
2022/11/24 03:31:22;;;;;;;20.52;2.30;;;7.30;99.90;;;;;;4945725;28;20035;-74
2022/11/24 03:33:48;;;;;;;18.08;1.80;;;7.40;99.90;;;;;;4942816;28;20041;-74
2022/11/24 03:36:13;;;;;;;15.35;2.85;;;7.40;99.90;;;;;;4958919;28;20251;-73
2022/11/24 03:38:39;;;;;;;17.83;2.22;;;7.40;99.90;;;;;;4940028;28;20038;-73
2022/11/24 03:41:05;;;;;;;14.40;1.70;;;7.30;99.90;;;;;;4945951;28;20471;-73
2022/11/24 03:43:31;;;;;;;13.60;1.58;;;7.30;99.90;;;;;;4955859;28;20421;-73
2022/11/24 03:45:56;;;;;;;16.52;2.60;;;7.30;99.90;;;;;;4954160;28;20038;-73
2022/11/24 03:48:22;;;;;;;15.48;2.17;;;7.30;99.90;;;;;;4959704;28;20035;-74
2022/11/24 03:50:56;;;;;;;15.07;1.83;;;7.40;99.90;;;;;;4966399;28;20482;-74
2022/11/24 03:53:22;;;;;;;19.70;2.80;;;7.40;99.90;;;;;;4965186;28;20037;-74
2022/11/24 03:55:48;;;;;;;19.40;2.47;;;7.30;99.90;;;;;;4958790;28;20023;-73
2022/11/24 03:58:13;;;;;;;12.88;1.70;;;7.30;99.90;;;;;;4956799;28;20397;-73
2022/11/24 04:00:40;;;;;;;19.17;2.00;;;7.40;99.90;;;;;;4959104;28;20470;-73
2022/11/24 04:03:06;;;;;;;17.35;2.30;;;7.40;99.90;;;;;;4959077;28;20039;-74
2022/11/24 04:05:32;;;;;;;19.13;2.08;;;7.40;99.90;;;;;;4958293;28;20027;-73
2022/11/24 04:08:01;;;;;;;37.95;2.63;;;7.30;99.90;;;;;;4934747;28;20110;-73
2022/11/24 04:10:27;;;;;;;12.02;1.70;;;7.30;99.90;;;;;;4951132;28;20388;-73
2022/11/24 04:12:53;;;;;;;16.52;1.92;;;7.30;99.90;;;;;;4960625;28;20034;-73
2022/11/24 04:15:20;;;;;;;14.38;1.83;;;7.30;99.90;;;;;;4940704;28;20039;-74
2022/11/24 04:17:46;;;;;;;15.00;2.45;;;7.30;99.90;;;;;;4951070;28;20052;-73
2022/11/24 04:20:12;;;;;;;11.50;1.70;;;7.30;99.90;;;;;;4960008;28;20186;-73
2022/11/24 04:22:38;;;;;;;17.55;1.80;;;7.20;99.90;;;;;;4960222;28;20537;-73
2022/11/24 04:25:05;;;;;;;18.40;1.75;;;7.20;99.90;;;;;;4960406;28;20034;-73
2022/11/24 04:27:35;;;;;;;20.92;2.40;;;7.20;99.90;;;;;;4943770;28;20125;-73
2022/11/24 04:30:01;;;;;;;22.08;2.50;;;7.10;99.90;;;;;;4943039;28;20026;-73
2022/11/24 04:32:27;;;;;;;16.50;1.73;;;7.00;99.90;;;;;;4940547;28;20554;-73
2022/11/24 04:34:52;;;;;;;14.40;1.92;;;7.00;99.90;;;;;;4959358;28;20172;-73
2022/11/24 04:37:18;;;;;;;17.90;1.88;;;7.00;99.90;;;;;;4961035;28;20035;-73
2022/11/24 04:39:45;;;;;;;18.70;2.90;;;6.90;99.90;;;;;;4961003;28;20267;-73
2022/11/24 04:42:11;;;;;;;14.70;2.20;;;7.00;99.90;;;;;;4961719;28;20027;-73
2022/11/24 04:44:36;;;;;;;15.25;2.00;;;6.90;99.90;;;;;;4960237;28;20100;-73
2022/11/24 04:47:02;;;;;;;16.38;2.22;;;6.90;99.90;;;;;;4961121;28;20035;-73
2022/11/24 04:49:28;;;;;;;23.13;2.55;;;6.90;99.90;;;;;;4964531;28;20099;-73
2022/11/24 04:51:54;;;;;;;17.77;2.50;;;6.90;99.90;;;;;;4960726;28;20490;-73
2022/11/24 04:54:19;;;;;;;15.48;2.10;;;6.90;99.90;;;;;;4964615;28;20034;-74
2022/11/24 04:56:50;;;;;;;21.50;2.50;;;6.90;99.90;;;;;;4949697;28;20047;-74
2022/11/24 04:59:17;;;;;;;20.65;2.85;;;6.90;99.90;;;;;;4963742;28;20039;-74
2022/11/24 05:01:43;;;;;;;22.83;2.55;;;6.90;99.90;;;;;;4964045;28;20124;-73
2022/11/24 05:04:11;;;;;;;23.65;3.03;;;6.90;99.90;;;;;;4964087;28;20030;-73
2022/11/24 05:06:37;;;;;;;20.42;3.10;;;6.90;99.90;;;;;;4963886;28;20023;-73
2022/11/24 05:09:03;;;;;;;21.98;2.38;;;7.00;99.90;;;;;;4945545;28;20056;-73
2022/11/24 05:11:29;;;;;;;14.73;1.80;;;7.00;99.90;;;;;;4963571;28;20406;-74
2022/11/24 05:13:54;;;;;;;17.83;2.90;;;6.90;99.90;;;;;;4963845;28;20030;-73
2022/11/24 05:16:20;;;;;;;18.98;2.33;;;6.90;99.90;;;;;;4964146;28;20371;-73
2022/11/24 05:18:45;;;;;;;18.45;2.22;;;7.00;99.90;;;;;;4960830;28;20141;-74
2022/11/24 05:21:11;;;;;;;25.98;2.92;;;7.00;99.90;;;;;;4959965;28;20137;-73
2022/11/24 05:23:37;;;;;;;16.40;1.98;;;6.90;99.90;;;;;;4964056;28;20498;-74
2022/11/24 05:26:03;;;;;;;16.50;2.50;;;6.90;99.90;;;;;;4964758;28;20502;-73
2022/11/24 05:28:29;;;;;;;19.77;2.83;;;6.90;99.90;;;;;;4959854;28;20102;-73
2022/11/24 05:31:01;;;;;;;23.63;3.05;;;6.80;99.90;;;;;;4962481;28;20102;-74
2022/11/24 05:33:28;;;;;;;22.33;2.35;;;6.80;99.90;;;;;;4944968;28;20035;-74
2022/11/24 05:35:58;;;;;;;30.95;3.42;;;6.80;99.90;;;;;;4948184;28;20263;-74
2022/11/24 05:38:25;;;;;;;18.05;2.88;;;6.90;99.90;;;;;;4945315;28;20044;-73
2022/11/24 05:40:50;;;;;;;25.15;2.95;;;6.90;99.90;;;;;;4953737;28;20385;-73
2022/11/24 05:43:16;;;;;;;24.67;3.80;;;6.90;99.90;;;;;;4963189;28;20143;-73
2022/11/24 05:45:43;;;;;;;14.95;2.10;;;6.90;99.90;;;;;;4945305;28;20430;-73
2022/11/24 05:48:13;;;;;;;19.52;2.47;;;6.90;99.90;;;;;;4954934;28;20509;-74
2022/11/24 05:50:39;;;;;;;17.33;2.20;;;6.90;99.90;;;;;;4964744;28;20042;-73
2022/11/24 05:53:07;;;;;;;16.58;2.58;;;6.90;99.90;;;;;;4965454;28;20110;-74
2022/11/24 05:55:34;;;;;;;14.40;2.38;;;7.00;99.90;;;;;;4963751;28;20214;-74
2022/11/24 05:58:04;;;;;;;15.23;1.98;;;7.00;99.90;;;;;;4936326;28;20046;-73
2022/11/24 06:00:31;;;;;;;24.03;2.47;;;6.90;99.90;;;;;;4953471;28;20045;-73
2022/11/24 06:02:57;;;;;;;19.80;2.22;;;6.90;99.90;;;;;;4965234;28;20066;-73
2022/11/24 06:05:24;;;;;;;13.80;2.13;;;6.90;99.90;;;;;;4965614;28;20079;-73
2022/11/24 06:07:51;;;;;;;16.23;2.30;;;6.80;99.90;;;;;;4962889;28;20042;-73
2022/11/24 06:10:17;;;;;;;18.40;2.67;;;6.80;99.90;;;;;;4965933;28;20026;-73
2022/11/24 06:12:43;;;;;;;22.77;2.53;;;6.90;99.90;;;;;;4964595;28;20046;-73
2022/11/24 06:15:10;;;;;;;20.88;2.63;;;6.80;99.90;;;;;;4964773;28;20026;-73
2022/11/24 06:17:37;;;;;;;19.65;2.65;;;6.80;99.90;;;;;;4963782;28;20086;-73
2022/11/24 06:20:04;;;;;;;14.63;2.60;;;6.80;99.90;;;;;;4961903;28;20118;-73
2022/11/24 06:22:30;;;;;;;20.73;2.45;;;6.80;99.90;;;;;;4951684;28;20348;-73
2022/11/24 06:24:55;;;;;;;18.50;2.75;;;6.80;99.90;;;;;;4964526;28;20031;-73
2022/11/24 06:27:21;;;;;;;19.38;2.38;;;6.80;99.90;;;;;;4956826;28;20030;-73
2022/11/24 06:29:47;;;;;;;23.48;3.67;;;6.80;99.90;;;;;;4964888;28;20058;-73
2022/11/24 06:32:13;;;;;;;21.85;2.70;;;6.80;99.90;;;;;;4963497;28;20034;-73
2022/11/24 06:34:38;;;;;;;18.42;2.03;;;6.90;99.90;;;;;;4961964;28;20035;-74
2022/11/24 06:37:04;;;;;;;16.50;2.35;;;6.90;99.90;;;;;;4964349;28;20471;-73
2022/11/24 06:39:30;;;;;;;18.20;2.95;;;6.90;99.90;;;;;;4964321;28;20462;-74
2022/11/24 06:41:56;;;;;;;34.35;2.95;;;6.90;99.90;;;;;;4963666;28;20034;-73
2022/11/24 06:44:21;;;;;;;18.38;2.53;;;6.90;99.90;;;;;;4960008;28;20440;-73
2022/11/24 06:46:47;;;;;;;14.40;2.45;;;6.90;99.90;;;;;;4962187;28;20093;-74
2022/11/24 06:49:13;;;;;;;23.35;2.50;;;6.80;99.90;;;;;;4964691;28;20034;-74
2022/11/24 06:51:38;;;;;;;17.83;2.30;;;6.90;99.90;;;;;;4967000;28;20031;-74
2022/11/24 06:54:09;;;;;;;22.33;2.92;;;6.80;99.90;;;;;;4964153;28;20561;-73
2022/11/24 06:56:35;;;;;;;22.50;2.97;;;6.80;99.90;;;;;;4959119;28;20039;-73
2022/11/24 06:59:01;;;;;;;15.73;2.60;;;6.80;99.90;;;;;;4944629;28;20054;-73
2022/11/24 07:01:28;;;;;;;16.98;2.92;;;6.70;99.90;;;;;;4955352;28;20037;-73
2022/11/24 07:03:54;;;;;;;14.93;2.17;;;6.70;99.90;;;;;;4944071;28;20038;-73
2022/11/24 07:06:21;;;;;;;15.43;2.60;;;6.70;99.90;;;;;;4955293;28;20038;-74
2022/11/24 07:08:48;;;;;;;21.23;2.33;;;6.60;99.90;;;;;;4958980;28;20673;-73
2022/11/24 07:11:16;;;;;;;18.58;2.58;;;6.60;99.90;;;;;;4963834;28;20046;-73
2022/11/24 07:13:43;;;;;;;16.17;2.22;;;6.60;99.90;;;;;;4962470;28;20022;-74
2022/11/24 07:16:14;;;;;;;24.88;2.58;;;6.60;99.90;;;;;;4963984;28;20030;-73
2022/11/24 07:18:40;;;;;;;19.33;2.40;;;6.60;99.90;;;;;;4963627;28;20074;-73
2022/11/24 07:21:06;;;;;;;19.55;1.77;;;6.60;99.90;;;;;;4938236;28;20083;-73
2022/11/24 07:23:32;;;;;;;17.30;2.25;;;6.60;99.90;;;;;;4948692;28;20322;-73
2022/11/24 07:25:58;;;;;;;23.90;2.58;;;6.50;99.90;;;;;;4952620;28;20035;-73
2022/11/24 07:28:24;;;;;;;25.98;2.63;;;6.60;99.90;;;;;;4945102;28;20468;-74
2022/11/24 07:30:49;;;;;;;14.55;2.40;;;6.60;99.90;;;;;;4954796;28;20110;-74
2022/11/24 07:33:18;;;;;;;20.83;2.72;;;6.70;99.90;;;;;;4960118;28;20118;-73
2022/11/24 07:35:44;;;;;;;19.98;2.65;;;6.80;99.90;;;;;;4957215;28;20114;-74
2022/11/24 07:38:09;;;;;;;15.32;2.60;;;6.90;99.90;;;;;;4959809;28;20130;-73
2022/11/24 07:40:35;;;;;;;12.35;2.30;;;7.00;99.90;;;;;;4959905;28;20042;-73
2022/11/24 07:43:00;;;;;;;21.48;2.95;;;7.00;99.90;;;;;;4957597;28;20209;-74
2022/11/24 07:45:26;;;;;;;20.73;2.88;;;7.00;99.90;;;;;;4957775;28;20019;-73
2022/11/24 07:47:51;;;;;;;20.40;2.55;;;7.10;99.90;;;;;;4957788;28;20654;-74
2022/11/24 07:50:17;;;;;;;26.90;3.67;;;7.10;99.90;;;;;;4943892;28;20109;-74
2022/11/24 07:52:43;;;;;;;27.50;3.03;;;7.20;99.90;;;;;;4943086;28;20395;-73
2022/11/24 07:55:09;;;;;;;21.52;3.50;;;7.50;99.90;;;;;;4945662;28;20497;-74
2022/11/24 07:57:35;;;;;;;16.85;2.42;;;7.60;99.90;;;;;;4958010;28;20049;-73
2022/11/24 08:00:01;;;;;;;22.70;3.17;;;7.80;99.90;;;;;;4953962;28;20047;-73
2022/11/24 08:02:26;;;;;;;25.08;3.15;;;8.00;99.90;;;;;;4953434;28;20035;-74
2022/11/24 08:04:52;;;;;;;32.88;3.40;;;8.10;99.90;;;;;;4951567;28;20035;-74
2022/11/24 08:07:18;;;;;;;33.35;4.38;;;8.40;99.90;;;;;;4944947;28;20182;-73
2022/11/24 08:09:43;;;;;;;19.63;2.90;;;8.80;99.90;;;;;;4957815;28;21201;-73
2022/11/24 08:12:09;;;;;;;21.52;2.72;;;9.00;99.90;;;;;;4956565;28;20034;-74
2022/11/24 08:14:34;;;;;;;28.90;2.97;;;9.10;99.90;;;;;;4963389;28;20042;-74
2022/11/24 08:17:00;;;;;;;29.38;3.47;;;9.30;99.90;;;;;;4966673;28;20413;-75
2022/11/24 08:19:25;;;;;;;27.05;3.47;;;9.50;99.90;;;;;;4961439;28;20131;-73
2022/11/24 08:21:51;;;;;;;25.25;4.05;;;9.70;99.90;;;;;;4953053;28;20134;-74
2022/11/24 08:24:17;;;;;;;28.10;3.72;;;10.20;99.90;;;;;;4953570;28;20023;-74
2022/11/24 08:26:42;;;;;;;23.58;3.45;;;10.50;99.90;;;;;;4959070;28;20097;-73
2022/11/24 08:29:08;;;;;;;22.52;2.92;;;10.80;99.20;;;;;;4938358;28;20011;-74
2022/11/24 08:31:36;;;;;;;33.80;3.65;;;11.10;99.60;;;;;;4953428;28;20043;-74
2022/11/24 08:34:04;;;;;;;28.65;3.70;;;11.40;99.30;;;;;;4956055;28;20042;-75
2022/11/24 08:36:30;;;;;;;29.80;4.00;;;11.60;99.10;;;;;;4958019;28;20892;-74
2022/11/24 08:38:58;;;;;;;23.35;3.80;;;11.80;99.20;;;;;;4959521;28;20042;-74
2022/11/24 08:41:24;;;;;;;28.33;3.70;;;11.90;99.00;;;;;;4955629;28;20257;-74
2022/11/24 08:43:50;;;;;;;25.55;3.97;;;11.90;99.50;;;;;;4954016;28;20038;-74
2022/11/24 08:46:17;;;;;;;39.28;5.45;;;11.80;99.90;;;;;;4958505;28;20031;-74
2022/11/24 08:48:47;;;;;;;28.63;4.18;;;11.90;99.90;;;;;;4949311;28;20114;-74
2022/11/24 08:51:15;;;;;;;21.50;2.73;;;11.90;99.90;;;;;;4958606;28;20031;-73
2022/11/24 08:53:41;;;;;;;30.92;3.45;;;11.90;99.90;;;;;;4958022;28;20034;-74
2022/11/24 08:56:09;;;;;;;29.88;4.03;;;12.00;99.40;;;;;;4954892;28;20110;-74
2022/11/24 08:58:35;;;;;;;32.30;3.47;;;12.20;98.50;;;;;;4951985;28;20713;-74
2022/11/24 09:01:05;;;;;;;28.50;3.65;;;12.40;98.00;;;;;;4940610;28;20035;-74
2022/11/24 09:03:30;;;;;;;24.77;3.50;;;12.50;97.70;;;;;;4939775;28;20034;-74
2022/11/24 09:05:56;;;;;;;23.58;3.25;;;12.60;97.40;;;;;;4963528;28;20067;-74
2022/11/24 09:08:21;;;;;;;32.38;3.75;;;12.70;97.90;;;;;;4961241;28;20482;-74
2022/11/24 09:10:47;;;;;;;31.40;3.72;;;12.80;97.40;;;;;;4956933;28;20508;-74
2022/11/24 09:13:13;;;;;;;31.15;4.35;;;12.80;97.80;;;;;;4940355;28;20083;-73
2022/11/24 09:15:38;;;;;;;29.38;5.00;;;12.90;97.30;;;;;;4963585;28;20134;-73
2022/11/24 09:18:04;;;;;;;35.75;5.13;;;12.90;97.60;;;;;;4964563;28;20082;-74
2022/11/24 09:20:30;;;;;;;32.90;4.20;;;12.80;97.00;;;;;;4964098;28;20321;-74
2022/11/24 09:22:55;;;;;;;39.17;4.82;;;12.90;97.60;;;;;;4956246;28;20062;-73
2022/11/24 09:25:22;;;;;;;30.70;4.15;;;13.30;96.60;;;;;;4962968;28;20023;-74
2022/11/24 09:27:48;;;;;;;26.33;3.72;;;13.50;96.10;;;;;;4963334;28;20035;-73
2022/11/24 09:30:14;;;;;;;26.75;4.13;;;13.60;95.10;;;;;;4964693;28;20023;-74
2022/11/24 09:32:40;;;;;;;28.30;4.38;;;13.80;94.90;;;;;;4962851;28;20394;-74
2022/11/24 09:35:06;;;;;;;32.50;4.80;;;13.70;94.20;;;;;;4943611;28;20030;-74
2022/11/24 09:37:32;;;;;;;41.95;4.88;;;13.50;94.80;;;;;;4946870;28;20038;-74
2022/11/24 09:39:58;;;;;;;34.35;4.85;;;13.40;94.80;;;;;;4963549;28;20125;-74
2022/11/24 09:42:57;;;;;;;43.60;7.15;;;13.20;95.80;;;;;;4951955;28;20118;-74
2022/11/24 09:45:47;;;;;;;31.30;4.07;;;13.10;95.80;;;;;;4946922;28;20043;-73
2022/11/24 09:48:28;;;;;;;42.75;4.85;;;13.10;96.60;;;;;;4958085;28;20143;-73
2022/11/24 09:50:58;;;;;;;43.30;4.32;;;12.90;96.80;;;;;;4939795;28;20070;-74
2022/11/24 09:53:34;;;;;;;37.28;6.00;;;12.90;97.20;;;;;;4944324;28;20126;-73
2022/11/24 09:56:27;;;;;;;30.02;5.25;;;13.00;96.50;;;;;;4943197;28;20035;-74
2022/11/24 09:59:09;;;;;;;33.75;4.03;;;13.00;97.30;;;;;;4936298;28;20052;-73
2022/11/24 10:01:39;;;;;;;35.30;5.00;;;13.10;96.20;;;;;;4952744;28;20495;-74
2022/11/24 10:04:21;;;;;;;28.02;3.97;;;13.10;96.40;;;;;;4961789;28;20162;-74
2022/11/24 10:06:47;;;;;;;28.98;3.90;;;13.20;96.40;;;;;;4959189;28;20023;-74
2022/11/24 10:09:30;;;;;;;32.00;4.35;;;13.20;96.20;;;;;;4963660;28;20509;-74
2022/11/24 10:12:11;;;;;;;37.17;4.75;;;13.20;96.30;;;;;;4958367;28;20031;-73
2022/11/24 10:15:08;;;;;;;29.48;3.97;;;13.20;95.50;;;;;;4961253;28;20031;-73
2022/11/24 10:17:44;;;;;;;30.00;3.85;;;13.30;95.20;;;;;;4907604;28;20047;-73
2022/11/24 10:20:21;;;;;;;35.67;4.40;;;13.50;94.40;;;;;;4949928;28;20449;-73
2022/11/24 10:22:54;;;;;;;32.90;4.88;;;13.90;94.60;;;;;;4961561;28;20033;-74
2022/11/24 10:25:25;;;;;;;30.48;4.40;;;14.40;93.10;;;;;;4953148;28;20473;-73
2022/11/24 10:28:01;;;;;;;30.67;4.10;;;15.10;92.20;;;;;;4949019;28;20034;-74
2022/11/24 10:30:26;;;;;;;30.10;3.80;;;15.70;87.90;;;;;;4957601;28;20039;-75
2022/11/24 10:33:05;;;;;;;27.83;3.70;;;16.10;84.10;;;;;;4963149;28;20038;-74
2022/11/24 10:35:44;;;;;;;27.35;3.50;;;16.00;82.80;;;;;;4961581;28;20042;-74
2022/11/24 10:38:34;;;;;;;30.55;3.97;;;15.50;84.50;;;;;;4964312;28;20038;-74
2022/11/24 10:41:05;;;;;;;31.40;3.47;;;14.80;88.80;;;;;;4964658;28;20022;-74
2022/11/24 10:43:31;;;;;;;33.10;3.88;;;14.60;90.90;;;;;;4962880;28;20035;-74
2022/11/24 10:46:20;;;;;;;29.90;3.85;;;14.50;91.20;;;;;;4963061;28;20129;-73
2022/11/24 10:49:04;;;;;;;30.73;3.75;;;14.20;92.90;;;;;;4952243;28;20030;-74
2022/11/24 10:51:29;;;;;;;23.38;3.70;;;14.00;92.60;;;;;;4962662;28;20121;-74
2022/11/24 10:54:16;;;;;;;17.88;3.00;;;13.70;93.40;;;;;;4963631;28;20126;-73
2022/11/24 10:56:44;;;;;;;28.55;3.90;;;13.70;94.30;;;;;;4946665;28;20034;-74
2022/11/24 10:59:28;;;;;;;33.97;4.47;;;13.90;94.60;;;;;;4959408;28;20054;-74
2022/11/24 11:01:54;;;;;;;27.25;3.75;;;13.80;93.90;;;;;;4958587;28;20061;-73
2022/11/24 11:04:29;;;;;;;22.65;3.17;;;13.90;94.80;;;;;;4964517;28;20802;-74
2022/11/24 11:07:27;;;;;;;30.20;3.35;;;13.90;93.60;;;;;;4959523;28;20026;-74
2022/11/24 11:10:22;;;;;;;30.23;3.40;;;13.90;94.10;;;;;;4904654;28;20038;-74
2022/11/24 11:12:47;;;;;;;24.58;3.20;;;13.80;94.40;;;;;;4961627;28;20477;-74
2022/11/24 11:15:23;;;;;;;27.17;3.67;;;13.80;94.40;;;;;;4960784;28;20046;-74
2022/11/24 11:17:51;;;;;;;27.40;3.75;;;14.10;93.80;;;;;;4950732;28;20039;-74
2022/11/24 11:20:23;;;;;;;26.35;3.42;;;14.20;93.60;;;;;;4964208;28;20343;-74
2022/11/24 11:22:50;;;;;;;29.92;4.38;;;14.20;92.60;;;;;;4953202;28;20050;-74
2022/11/24 11:25:34;;;;;;;34.65;3.60;;;14.20;92.70;;;;;;4951895;28;20153;-74
2022/11/24 11:28:18;;;;;;;22.40;3.08;;;14.60;92.50;;;;;;4957643;28;20074;-74
2022/11/24 11:30:58;;;;;;;31.30;3.47;;;14.80;91.90;;;;;;4954130;28;20058;-74
2022/11/24 11:33:29;;;;;;;24.00;3.58;;;15.00;92.30;;;;;;4956090;28;20074;-74
2022/11/24 11:35:56;;;;;;;27.88;2.72;;;15.10;91.90;;;;;;4947850;28;20132;-74
2022/11/24 11:38:25;;;;;;;30.98;3.78;;;14.90;90.40;;;;;;4955787;28;20050;-74
2022/11/24 11:40:51;;;;;;;27.15;4.03;;;14.50;91.50;;;;;;4954664;28;20112;-74
2022/11/24 11:43:20;;;;;;;26.55;3.28;;;14.30;93.10;;;;;;4957527;28;20022;-73
2022/11/24 11:45:56;;;;;;;21.63;3.83;;;14.20;93.20;;;;;;4957576;28;20101;-74
2022/11/24 11:48:32;;;;;;;33.22;4.88;;;14.00;93.90;;;;;;4975734;28;20035;-74
2022/11/24 11:51:28;;;;;;;27.58;4.10;;;13.90;94.70;;;;;;4965100;28;20023;-74
2022/11/24 11:54:27;;;;;;;35.63;3.88;;;13.70;95.10;;;;;;4965130;28;20054;-75
2022/11/24 11:57:35;;;;;;;23.40;4.13;;;13.50;96.10;;;;;;4959751;28;20086;-74
2022/11/24 12:00:19;;;;;;;28.30;3.72;;;13.40;95.90;;;;;;4884797;29;20055;-75
2022/11/24 12:03:13;;;;;;;25.55;4.53;;;13.30;96.90;;;;;;4949456;28;20043;-74
2022/11/24 12:06:03;;;;;;;36.45;4.95;;;13.20;96.80;;;;;;4953187;28;20035;-75
2022/11/24 12:09:00;;;;;;;30.27;5.43;;;13.40;96.10;;;;;;4958377;28;20179;-74
2022/11/24 12:11:37;;;;;;;26.65;4.85;;;13.70;96.20;;;;;;4944953;28;20035;-75
2022/11/24 12:14:16;;;;;;;26.30;4.00;;;14.20;95.10;;;;;;4959448;28;20031;-74
2022/11/24 12:17:08;;;;;;;31.40;4.82;;;14.30;94.10;;;;;;4964100;28;20446;-74
2022/11/24 12:19:39;;;;;;;27.40;4.13;;;14.10;94.30;;;;;;4963496;28;20057;-73
2022/11/24 12:22:07;;;;;;;;;;;14.10;94.20;;;;;;4965657;28;20062;-76
2022/11/24 12:24:55;;;;;;;29.25;4.18;;;14.00;94.70;;;;;;4947898;28;20093;-76
2022/11/24 12:27:32;;;;;;;26.00;3.67;;;13.90;95.20;;;;;;4964926;28;20030;-74
2022/11/24 12:30:13;;;;;;;31.88;4.45;;;13.60;95.20;;;;;;4966839;28;20029;-72
2022/11/24 12:33:07;;;;;;;27.00;3.60;;;13.30;95.90;;;;;;4963764;28;20669;-76
2022/11/24 12:35:47;;;;;;;25.30;3.55;;;13.10;96.70;;;;;;4944552;28;20488;-76
2022/11/24 12:38:49;;;;;;;31.92;4.07;;;13.00;97.30;;;;;;4965312;28;20072;-76
2022/11/24 12:41:27;;;;;;;34.83;3.85;;;13.00;97.20;;;;;;4964511;28;20126;-75
2022/11/24 12:43:56;;;;;;;28.15;3.58;;;13.00;97.20;;;;;;4964521;28;20058;-75
2022/11/24 12:46:34;;;;;;;26.48;3.67;;;13.10;97.10;;;;;;4966519;28;20033;-76
2022/11/24 12:49:09;;;;;;;24.42;3.28;;;13.20;97.30;;;;;;4961027;28;20101;-75
2022/11/24 12:51:41;;;;;;;28.30;4.45;;;13.40;96.80;;;;;;4963709;28;20077;-75
2022/11/24 12:54:12;;;;;;;32.50;4.53;;;13.40;96.40;;;;;;4968875;28;20054;-75
2022/11/24 12:56:38;;;;;;;;;;;13.50;96.20;;;;;;4936995;28;20043;-75
2022/11/24 12:59:42;;;;;;;31.15;4.50;;;13.50;96.20;;;;;;4966949;28;19922;-75